Time;durP1;ratioP1;P1;durP2;ratioP2;P2;SDS_P1;SDS_P2;PMS_P1;PMS_P2;Temp;Humidity;BMP_temperature;BMP_pressure;BME280_temperature;BME280_humidity;BME280_pressure;Samples;Min_cycle;Max_cycle;Signal;HPM_P1;HPM_P2
2021/06/10 00:01:44;;;;;;;;;;;20.60;63.60;;;;;;5015311;28;1403;-74
2021/06/10 00:04:10;;;;;;;;;;;20.50;63.50;;;;;;5032010;28;1247;-74
2021/06/10 00:06:35;;;;;;;;;;;20.60;63.50;;;;;;5032895;28;1595;-74
2021/06/10 00:09:01;;;;;;;;;;;20.50;63.50;;;;;;5031400;28;1652;-74
2021/06/10 00:11:26;;;;;;;;;;;20.50;63.50;;;;;;5012000;28;1686;-74
2021/06/10 00:13:52;;;;;;;;;;;20.60;63.50;;;;;;5023010;28;1956;-74
2021/06/10 00:16:17;;;;;;;;;;;20.50;63.50;;;;;;5032723;28;1316;-74
2021/06/10 00:18:43;;;;;;;;;;;20.50;63.50;;;;;;5031588;28;1313;-74
2021/06/10 00:21:08;;;;;;;;;;;20.60;63.60;;;;;;5031500;28;1378;-74
2021/06/10 00:23:34;;;;;;;;;;;20.50;63.50;;;;;;5031039;28;1232;-74
2021/06/10 00:25:59;;;;;;;;;;;20.60;63.60;;;;;;5031440;28;1528;-74
2021/06/10 00:28:25;;;;;;;;;;;20.50;63.50;;;;;;5032864;28;1362;-74
2021/06/10 00:30:50;;;;;;;;;;;20.60;63.60;;;;;;5011827;28;1408;-74
2021/06/10 00:33:15;;;;;;;;;;;20.60;63.60;;;;;;5024499;28;1907;-74
2021/06/10 00:35:44;;;;;;;;;;;20.50;63.50;;;;;;5032618;28;1473;-74
2021/06/10 00:38:09;;;;;;;;;;;20.50;63.50;;;;;;5031218;28;1440;-74
2021/06/10 00:40:35;;;;;;;;;;;20.50;63.50;;;;;;5032801;28;1292;-74
2021/06/10 00:43:00;;;;;;;;;;;20.50;63.50;;;;;;5032212;28;1351;-74
2021/06/10 00:45:26;;;;;;;;;;;20.50;63.50;;;;;;5032540;28;1745;-74
2021/06/10 00:47:52;;;;;;;;;;;20.50;63.50;;;;;;5032379;28;1401;-74
2021/06/10 00:50:18;;;;;;;;;;;20.50;63.60;;;;;;5032659;28;1702;-74
2021/06/10 00:52:44;;;;;;;;;;;20.50;63.50;;;;;;5032333;28;1906;-74
2021/06/10 00:55:10;;;;;;;;;;;20.50;63.60;;;;;;5032312;28;1443;-73
2021/06/10 00:57:35;;;;;;;;;;;20.50;63.60;;;;;;5032657;28;1313;-74
2021/06/10 01:00:01;;;;;;;;;;;20.60;63.60;;;;;;5031110;28;1323;-74
2021/06/10 01:02:26;;;;;;;;;;;20.50;63.60;;;;;;5031289;28;1600;-74
2021/06/10 01:04:51;;;;;;;;;;;20.50;63.60;;;;;;5032062;28;1709;-74
2021/06/10 01:07:36;;;;;;;;;;;20.60;63.70;;;;;;5014559;28;1355;-73
2021/06/10 01:10:10;;;;;;;;;;;20.50;63.60;;;;;;5032541;28;1156;-74
2021/06/10 01:12:40;;;;;;;;;;;20.50;63.60;;;;;;5031352;28;1914;-74
2021/06/10 01:15:07;;;;;;;;;;;20.50;63.60;;;;;;5015012;28;1262;-74
2021/06/10 01:17:33;;;;;;;;;;;20.50;63.60;;;;;;5034497;28;1111;-73
2021/06/10 01:20:08;;;;;;;;;;;20.50;63.60;;;;;;5034211;28;1084;-74
2021/06/10 01:22:43;;;;;;;;;;;20.50;63.60;;;;;;5034191;28;1332;-74
2021/06/10 01:25:26;;;;;;;;;;;20.50;63.60;;;;;;5035286;28;1076;-74
2021/06/10 01:27:52;;;;;;;;;;;20.50;63.60;;;;;;5022892;28;1150;-74
2021/06/10 01:30:19;;;;;;;;;;;20.60;63.70;;;;;;5035137;28;1091;-74
2021/06/10 01:32:46;;;;;;;;;;;20.50;63.70;;;;;;5033978;28;1902;-74
2021/06/10 01:35:12;;;;;;;;;;;20.50;63.60;;;;;;5035101;28;1111;-74
2021/06/10 01:37:38;;;;;;;;;;;20.50;63.60;;;;;;5034318;28;1092;-74
2021/06/10 01:40:04;;;;;;;;;;;20.50;63.70;;;;;;5034039;28;1056;-74
2021/06/10 01:42:29;;;;;;;;;;;20.50;63.70;;;;;;5035447;28;1330;-74
2021/06/10 01:44:55;;;;;;;;;;;20.50;63.70;;;;;;5013998;28;1096;-74
2021/06/10 01:47:20;;;;;;;;;;;20.50;63.70;;;;;;5034178;28;1056;-74
2021/06/10 01:49:45;;;;;;;;;;;20.50;63.70;;;;;;5033818;28;1139;-74
2021/06/10 01:52:11;;;;;;;;;;;20.50;63.70;;;;;;5035063;28;1280;-74
2021/06/10 01:54:36;;;;;;;;;;;20.60;63.80;;;;;;5033548;28;1962;-74
2021/06/10 01:57:02;;;;;;;;;;;20.50;63.70;;;;;;5033793;28;1277;-74
2021/06/10 01:59:28;;;;;;;;;;;20.50;63.70;;;;;;5033576;28;1037;-74
2021/06/10 02:01:53;;;;;;;;;;;20.50;63.70;;;;;;5033578;28;1139;-74
2021/06/10 02:04:19;;;;;;;;;;;20.50;63.80;;;;;;5033356;28;1145;-74
2021/06/10 02:06:44;;;;;;;;;;;20.50;63.70;;;;;;5027558;28;1603;-74
2021/06/10 02:09:11;;;;;;;;;;;20.50;63.70;;;;;;5024940;28;1344;-75
2021/06/10 02:11:36;;;;;;;;;;;20.50;63.70;;;;;;5024931;28;1112;-76
2021/06/10 02:14:02;;;;;;;;;;;20.50;63.70;;;;;;5007655;28;1983;-77
2021/06/10 02:16:27;;;;;;;;;;;20.50;63.70;;;;;;5025685;28;1205;-76
2021/06/10 02:18:52;;;;;;;;;;;20.50;63.70;;;;;;5029296;28;1220;-75
2021/06/10 02:21:18;;;;;;;;;;;20.50;63.70;;;;;;5025592;28;1188;-75
2021/06/10 02:23:44;;;;;;;;;;;20.50;63.70;;;;;;5024418;28;1327;-76
2021/06/10 02:26:09;;;;;;;;;;;20.50;63.80;;;;;;5031525;28;1287;-76
2021/06/10 02:28:35;;;;;;;;;;;20.50;64.50;;;;;;5024527;28;1188;-76
2021/06/10 02:31:01;;;;;;;;;;;20.50;63.70;;;;;;5034437;28;1278;-75
2021/06/10 02:33:27;;;;;;;;;;;20.50;63.70;;;;;;5034034;28;1977;-76
2021/06/10 02:35:52;;;;;;;;;;;20.50;63.80;;;;;;5033380;28;1234;-75
2021/06/10 02:38:20;;;;;;;;;;;20.50;63.80;;;;;;5033163;28;1162;-75
2021/06/10 02:40:47;;;;;;;;;;;20.50;63.80;;;;;;5032863;28;1258;-75
2021/06/10 02:43:13;;;;;;;;;;;20.50;63.80;;;;;;5032389;28;1283;-75
2021/06/10 02:45:39;;;;;;;;;;;20.50;63.80;;;;;;5034203;28;1329;-75
2021/06/10 02:48:04;;;;;;;;;;;20.50;63.80;;;;;;5034167;28;1150;-75
2021/06/10 02:50:30;;;;;;;;;;;20.50;63.80;;;;;;5032830;28;1289;-75
2021/06/10 02:52:55;;;;;;;;;;;20.50;63.80;;;;;;5034180;28;1965;-75
2021/06/10 02:55:21;;;;;;;;;;;20.50;63.80;;;;;;5032780;28;1230;-75
2021/06/10 02:57:53;;;;;;;;;;;20.50;63.80;;;;;;5032536;28;1147;-75
2021/06/10 03:00:19;;;;;;;;;;;20.50;63.90;;;;;;5032722;28;1108;-75
2021/06/10 03:02:44;;;;;;;;;;;20.50;63.90;;;;;;5034259;28;1283;-76
2021/06/10 03:05:11;;;;;;;;;;;20.50;63.90;;;;;;5032530;28;1104;-75
2021/06/10 03:07:36;;;;;;;;;;;20.50;63.90;;;;;;5032541;28;1064;-76
2021/06/10 03:10:02;;;;;;;;;;;20.50;63.90;;;;;;5032469;28;1064;-76
2021/06/10 03:12:28;;;;;;;;;;;20.50;63.90;;;;;;5031980;28;1970;-76
2021/06/10 03:14:53;;;;;;;;;;;20.50;64.00;;;;;;5033253;28;1054;-75
2021/06/10 03:17:19;;;;;;;;;;;20.50;64.00;;;;;;5032353;28;1092;-75
2021/06/10 03:19:44;;;;;;;;;;;20.50;64.00;;;;;;5032216;28;1084;-75
2021/06/10 03:22:09;;;;;;;;;;;20.50;63.90;;;;;;5032326;28;1374;-75
2021/06/10 03:24:35;;;;;;;;;;;20.50;63.90;;;;;;5031929;28;1096;-77
2021/06/10 03:27:00;;;;;;;;;;;20.50;64.00;;;;;;5015589;28;1077;-76
2021/06/10 03:29:26;;;;;;;;;;;20.50;64.00;;;;;;5015485;28;1117;-76
2021/06/10 03:31:51;;;;;;;;;;;20.50;64.00;;;;;;5032278;28;1088;-75
2021/06/10 03:34:18;;;;;;;;;;;20.50;64.00;;;;;;5031450;28;1955;-76
2021/06/10 03:36:43;;;;;;;;;;;20.50;64.00;;;;;;5032463;28;1093;-75
2021/06/10 03:39:09;;;;;;;;;;;20.50;64.00;;;;;;5011138;28;1307;-76
2021/06/10 03:41:34;;;;;;;;;;;20.50;64.00;;;;;;5025134;28;1238;-76
2021/06/10 03:44:00;;;;;;;;;;;20.50;64.00;;;;;;5031552;28;1273;-76
2021/06/10 03:46:25;;;;;;;;;;;20.50;64.80;;;;;;5033032;28;1154;-76
2021/06/10 03:48:51;;;;;;;;;;;20.50;64.00;;;;;;5031621;28;1012;-76
2021/06/10 03:51:17;;;;;;;;;;;20.50;64.00;;;;;;5031783;28;1138;-76
2021/06/10 03:53:46;;;;;;;;;;;20.50;64.00;;;;;;5032610;28;1965;-76
2021/06/10 03:56:11;;;;;;;;;;;20.50;64.10;;;;;;5031762;28;1155;-76
2021/06/10 03:58:37;;;;;;;;;;;20.50;64.10;;;;;;5031702;28;1119;-76
2021/06/10 04:01:02;;;;;;;;;;;20.50;64.10;;;;;;5031750;28;1143;-76
2021/06/10 04:03:28;;;;;;;;;;;20.50;64.10;;;;;;5032523;28;1357;-74
2021/06/10 04:05:53;;;;;;;;;;;20.50;64.10;;;;;;5033148;28;1059;-73
2021/06/10 04:08:19;;;;;;;;;;;20.50;64.10;;;;;;5032715;28;1095;-73
2021/06/10 04:10:44;;;;;;;;;;;20.50;64.10;;;;;;5031209;28;1289;-74
2021/06/10 04:13:10;;;;;;;;;;;20.50;64.10;;;;;;5032170;28;1906;-74
2021/06/10 04:15:35;;;;;;;;;;;20.50;64.10;;;;;;5018565;28;1246;-74
2021/06/10 04:18:00;;;;;;;;;;;20.50;64.10;;;;;;5032312;28;1152;-74
2021/06/10 04:20:26;;;;;;;;;;;20.50;64.10;;;;;;5031360;28;1163;-76
2021/06/10 04:22:51;;;;;;;;;;;20.50;64.10;;;;;;5031173;28;1304;-76
2021/06/10 04:25:17;;;;;;;;;;;20.50;64.10;;;;;;5031037;28;1095;-76
2021/06/10 04:27:42;;;;;;;;;;;20.50;64.10;;;;;;5032642;28;1265;-76
2021/06/10 04:30:08;;;;;;;;;;;20.50;64.10;;;;;;5031465;28;789;-76
2021/06/10 04:32:34;;;;;;;;;;;20.50;64.20;;;;;;5032615;28;1894;-77
2021/06/10 04:35:01;;;;;;;;;;;20.50;64.20;;;;;;5032318;28;1139;-76
2021/06/10 04:37:27;;;;;;;;;;;20.50;64.20;;;;;;5031419;28;1116;-76
2021/06/10 04:39:52;;;;;;;;;;;20.50;64.20;;;;;;5032445;28;1071;-75
2021/06/10 04:42:18;;;;;;;;;;;20.50;64.20;;;;;;5032645;28;1258;-75
2021/06/10 04:44:43;;;;;;;;;;;20.50;64.20;;;;;;5032428;28;756;-75
2021/06/10 04:47:09;;;;;;;;;;;20.50;64.20;;;;;;5032483;28;1178;-75
2021/06/10 04:49:36;;;;;;;;;;;20.50;64.20;;;;;;5032361;28;1059;-75
2021/06/10 04:52:02;;;;;;;;;;;20.50;64.90;;;;;;5034775;28;1385;-74
2021/06/10 04:54:27;;;;;;;;;;;20.50;64.20;;;;;;5034419;28;1902;-74
2021/06/10 04:56:53;;;;;;;;;;;20.50;64.20;;;;;;5036089;28;1116;-74
2021/06/10 04:59:18;;;;;;;;;;;20.50;64.20;;;;;;5034946;28;1119;-74
2021/06/10 05:01:44;;;;;;;;;;;20.50;64.10;;;;;;5036022;28;1182;-74
2021/06/10 05:04:09;;;;;;;;;;;20.50;64.90;;;;;;5035830;28;1189;-74
2021/06/10 05:06:35;;;;;;;;;;;20.50;64.20;;;;;;5035951;28;1193;-74
2021/06/10 05:09:00;;;;;;;;;;;20.50;64.30;;;;;;5035952;28;1158;-74
2021/06/10 05:11:25;;;;;;;;;;;20.50;64.40;;;;;;5035745;28;956;-74
2021/06/10 05:13:51;;;;;;;;;;;20.50;64.40;;;;;;5034404;28;1906;-74
2021/06/10 05:16:16;;;;;;;;;;;20.50;64.50;;;;;;5034567;28;1136;-75
2021/06/10 05:18:42;;;;;;;;;;;20.50;64.40;;;;;;5034781;28;1135;-74
2021/06/10 05:21:07;;;;;;;;;;;20.50;65.10;;;;;;5035653;28;1193;-75
2021/06/10 05:23:33;;;;;;;;;;;20.50;64.40;;;;;;5035175;28;1305;-74
2021/06/10 05:25:58;;;;;;;;;;;20.50;64.40;;;;;;5034429;28;1128;-74
2021/06/10 05:28:24;;;;;;;;;;;20.50;64.40;;;;;;5035556;28;1166;-75
2021/06/10 05:30:49;;;;;;;;;;;20.50;64.40;;;;;;5035386;28;1316;-75
2021/06/10 05:33:15;;;;;;;;;;;20.50;64.40;;;;;;5035235;28;1959;-74
2021/06/10 05:35:40;;;;;;;;;;;20.50;64.40;;;;;;5035552;28;1123;-75
2021/06/10 05:38:06;;;;;;;;;;;20.50;64.40;;;;;;5035583;28;1146;-75
2021/06/10 05:40:31;;;;;;;;;;;20.50;64.40;;;;;;5035316;28;1068;-75
2021/06/10 05:42:56;;;;;;;;;;;20.50;64.40;;;;;;5033819;28;1273;-74
2021/06/10 05:45:22;;;;;;;;;;;20.50;64.40;;;;;;5015631;28;1810;-72
2021/06/10 05:47:47;;;;;;;;;;;20.50;64.40;;;;;;5045482;28;1105;-73
2021/06/10 05:50:13;;;;;;;;;;;20.50;64.40;;;;;;5041674;28;1161;-72
2021/06/10 05:52:39;;;;;;;;;;;20.50;64.40;;;;;;5033744;28;1953;-70
2021/06/10 05:55:06;;;;;;;;;;;20.50;64.40;;;;;;5033502;28;1091;-70
2021/06/10 05:57:31;;;;;;;;;;;20.50;64.40;;;;;;5033988;28;1071;-71
2021/06/10 05:59:56;;;;;;;;;;;20.50;64.40;;;;;;5032205;28;1291;-72
2021/06/10 06:02:22;;;;;;;;;;;20.50;64.50;;;;;;5032408;28;1292;-72
2021/06/10 06:04:47;;;;;;;;;;;20.50;64.50;;;;;;5033763;28;1048;-71
2021/06/10 06:07:13;;;;;;;;;;;20.50;64.40;;;;;;5033932;28;1052;-71
2021/06/10 06:09:38;;;;;;;;;;;20.50;64.50;;;;;;5032535;28;1299;-72
2021/06/10 06:12:06;;;;;;;;;;;20.50;64.40;;;;;;5033850;28;1275;-71
2021/06/10 06:14:34;;;;;;;;;;;20.50;64.50;;;;;;5029538;28;1914;-71
2021/06/10 06:17:01;;;;;;;;;;;20.50;64.40;;;;;;5025152;28;1283;-70
2021/06/10 06:19:26;;;;;;;;;;;20.50;64.50;;;;;;5012697;28;1283;-70
2021/06/10 06:21:52;;;;;;;;;;;20.50;64.50;;;;;;5030510;28;1086;-70
2021/06/10 06:24:17;;;;;;;;;;;20.50;64.50;;;;;;5033344;28;1294;-70
2021/06/10 06:26:43;;;;;;;;;;;20.50;64.60;;;;;;5033806;28;1154;-69
2021/06/10 06:29:08;;;;;;;;;;;20.50;64.50;;;;;;5033544;28;1166;-69
2021/06/10 06:31:34;;;;;;;;;;;20.50;64.50;;;;;;5033260;28;1060;-68
2021/06/10 06:33:59;;;;;;;;;;;20.50;64.50;;;;;;5031803;28;1969;-69
2021/06/10 06:36:25;;;;;;;;;;;20.50;64.50;;;;;;5033197;28;1060;-70
2021/06/10 06:38:50;;;;;;;;;;;20.50;64.50;;;;;;5032982;28;965;-72
2021/06/10 06:41:16;;;;;;;;;;;20.50;64.60;;;;;;5034549;28;1134;-71
2021/06/10 06:43:41;;;;;;;;;;;20.50;64.60;;;;;;5033755;28;1273;-73
2021/06/10 06:46:08;;;;;;;;;;;20.50;64.50;;;;;;5033885;28;1053;-73
2021/06/10 06:48:34;;;;;;;;;;;20.50;64.50;;;;;;5033007;28;1120;-74
2021/06/10 06:51:02;;;;;;;;;;;20.50;64.60;;;;;;5033762;28;1059;-74
2021/06/10 06:53:29;;;;;;;;;;;20.50;64.50;;;;;;5033787;28;1965;-74
2021/06/10 06:55:56;;;;;;;;;;;20.50;64.60;;;;;;5033835;28;1127;-74
2021/06/10 06:58:21;;;;;;;;;;;20.50;64.50;;;;;;5033920;28;1198;-74
2021/06/10 07:00:46;;;;;;;;;;;20.50;64.50;;;;;;5034152;28;1060;-74
2021/06/10 07:03:12;;;;;;;;;;;20.50;64.60;;;;;;5033432;28;1330;-73
2021/06/10 07:05:37;;;;;;;;;;;20.50;64.60;;;;;;5033897;28;1055;-74
2021/06/10 07:08:03;;;;;;;;;;;20.50;64.50;;;;;;5033569;28;1103;-73
2021/06/10 07:10:28;;;;;;;;;;;20.50;64.60;;;;;;5034292;28;1098;-73
2021/06/10 07:12:54;;;;;;;;;;;20.50;64.60;;;;;;5033473;28;1973;-73
2021/06/10 07:15:19;;;;;;;;;;;20.50;64.60;;;;;;5033639;28;1256;-73
2021/06/10 07:17:45;;;;;;;;;;;20.50;64.60;;;;;;5033418;28;1162;-73
2021/06/10 07:20:10;;;;;;;;;;;20.50;64.60;;;;;;5033460;28;1055;-73
2021/06/10 07:22:36;;;;;;;;;;;20.50;64.60;;;;;;5033555;28;1281;-72
2021/06/10 07:25:02;;;;;;;;;;;20.50;64.60;;;;;;5033170;28;1004;-73
2021/06/10 07:27:27;;;;;;;;;;;20.50;64.60;;;;;;5033575;28;1123;-74
2021/06/10 07:29:54;;;;;;;;;;;20.50;64.60;;;;;;5033429;28;1118;-74
2021/06/10 07:32:19;;;;;;;;;;;20.50;64.60;;;;;;5033342;28;1369;-74
2021/06/10 07:34:45;;;;;;;;;;;20.50;64.60;;;;;;5033089;28;1918;-74
2021/06/10 07:37:10;;;;;;;;;;;20.50;64.70;;;;;;5031910;28;1076;-74
2021/06/10 07:39:36;;;;;;;;;;;20.50;64.60;;;;;;5032227;28;1123;-74
2021/06/10 07:42:01;;;;;;;;;;;20.50;64.70;;;;;;5031939;28;1299;-73
2021/06/10 07:44:27;;;;;;;;;;;20.50;64.70;;;;;;5032008;28;1088;-73
2021/06/10 07:46:55;;;;;;;;;;;20.50;64.60;;;;;;5031979;28;1076;-73
2021/06/10 07:49:21;;;;;;;;;;;20.50;64.70;;;;;;5032982;28;1068;-73
2021/06/10 07:51:46;;;;;;;;;;;20.50;64.60;;;;;;5033173;28;1174;-73
2021/06/10 07:54:12;;;;;;;;;;;20.40;64.70;;;;;;5031337;28;1895;-73
2021/06/10 07:56:37;;;;;;;;;;;20.50;64.70;;;;;;5032911;28;1303;-72
2021/06/10 07:59:03;;;;;;;;;;;20.50;64.70;;;;;;5032777;28;1166;-72
2021/06/10 08:01:28;;;;;;;;;;;20.50;64.70;;;;;;5031520;28;1203;-72
2021/06/10 08:03:53;;;;;;;;;;;20.50;64.70;;;;;;5032267;28;1288;-74
2021/06/10 08:06:20;;;;;;;;;;;20.50;64.70;;;;;;5031768;28;1202;-74
2021/06/10 08:08:46;;;;;;;;;;;20.50;64.70;;;;;;5033033;28;1375;-72
2021/06/10 08:11:11;;;;;;;;;;;20.50;65.50;;;;;;5031706;28;1675;-72
2021/06/10 08:13:37;;;;;;;;;;;20.50;64.70;;;;;;5032501;28;1914;-73
2021/06/10 08:16:02;;;;;;;;;;;20.50;64.70;;;;;;5019569;28;1555;-73
2021/06/10 08:18:29;;;;;;;;;;;20.50;64.70;;;;;;5015281;28;1654;-72
2021/06/10 08:20:57;;;;;;;;;;;20.50;64.70;;;;;;5032796;28;1623;-73
2021/06/10 08:23:23;;;;;;;;;;;20.50;64.70;;;;;;5031513;28;1744;-72
2021/06/10 08:25:48;;;;;;;;;;;20.50;64.70;;;;;;5034489;28;1435;-72
2021/06/10 08:28:14;;;;;;;;;;;20.50;64.70;;;;;;5037008;28;1635;-72
2021/06/10 08:30:39;;;;;;;;;;;20.50;64.70;;;;;;5036794;28;1621;-72
2021/06/10 08:33:05;;;;;;;;;;;20.50;64.70;;;;;;5034813;28;1894;-73
2021/06/10 08:35:30;;;;;;;;;;;20.50;64.70;;;;;;5036230;28;1111;-72
2021/06/10 08:37:58;;;;;;;;;;;20.50;64.70;;;;;;5035540;28;1052;-72
2021/06/10 08:40:23;;;;;;;;;;;20.50;64.70;;;;;;5036331;28;1122;-72
2021/06/10 08:42:49;;;;;;;;;;;20.50;64.70;;;;;;5035108;28;1293;-73
2021/06/10 08:45:15;;;;;;;;;;;20.50;64.70;;;;;;5035158;28;1088;-72
2021/06/10 08:47:42;;;;;;;;;;;20.50;64.70;;;;;;5035200;28;1088;-73
2021/06/10 08:50:09;;;;;;;;;;;20.50;64.70;;;;;;5034934;28;1190;-72
2021/06/10 08:52:35;;;;;;;;;;;20.50;64.70;;;;;;5036356;28;1215;-72
2021/06/10 08:55:00;;;;;;;;;;;20.50;64.70;;;;;;5035887;28;1894;-72
2021/06/10 08:57:26;;;;;;;;;;;20.50;64.70;;;;;;5035022;28;1092;-71
2021/06/10 08:59:51;;;;;;;;;;;20.50;64.80;;;;;;5036270;28;1206;-72
2021/06/10 09:02:16;;;;;;;;;;;20.50;64.70;;;;;;5034543;28;1262;-73
2021/06/10 09:04:42;;;;;;;;;;;20.50;64.70;;;;;;5026745;28;1243;-72
2021/06/10 09:07:09;;;;;;;;;;;20.50;64.70;;;;;;5018479;28;1537;-73
2021/06/10 09:09:36;;;;;;;;;;;20.50;64.80;;;;;;5024374;28;1052;-72
2021/06/10 09:12:08;;;;;;;;;;;20.50;64.70;;;;;;5034379;28;1236;-73
2021/06/10 09:14:52;;;;;;;;;;;20.50;64.70;;;;;;5022650;28;1968;-73
2021/06/10 09:17:34;;;;;;;;;;;20.50;64.70;;;;;;5032474;28;1323;-72
2021/06/10 09:19:59;;;;;;;;;;;20.50;64.70;;;;;;5027552;28;1232;-74
2021/06/10 09:22:26;;;;;;;;;;;20.50;64.90;;;;;;5026738;28;1308;-73
2021/06/10 09:24:51;;;;;;;;;;;20.50;64.90;;;;;;5030189;28;1278;-74
2021/06/10 09:27:17;;;;;;;;;;;20.50;65.00;;;;;;5026590;28;1239;-73
2021/06/10 09:29:45;;;;;;;;;;;20.50;64.90;;;;;;5026140;28;1402;-73
2021/06/10 09:32:14;;;;;;;;;;;20.50;64.80;;;;;;5028312;28;1335;-73
2021/06/10 09:34:42;;;;;;;;;;;20.50;64.90;;;;;;5026712;28;1961;-74
2021/06/10 09:37:07;;;;;;;;;;;20.50;64.90;;;;;;5029311;28;1339;-72
2021/06/10 09:39:33;;;;;;;;;;;20.50;64.80;;;;;;5029762;28;1105;-73
2021/06/10 09:42:01;;;;;;;;;;;20.50;64.80;;;;;;5031326;28;1861;-74
2021/06/10 09:44:39;;;;;;;;;;;20.50;64.90;;;;;;5025655;28;1236;-74
2021/06/10 09:47:05;;;;;;;;;;;20.50;64.90;;;;;;5026874;28;1128;-75
2021/06/10 09:49:30;;;;;;;;;;;20.50;64.90;;;;;;5024637;28;1212;-75
2021/06/10 09:51:56;;;;;;;;;;;20.50;64.90;;;;;;5028584;28;1260;-75
2021/06/10 09:54:52;;;;;;;;;;;20.50;64.80;;;;;;5025197;28;1875;-75
2021/06/10 09:57:17;;;;;;;;;;;20.50;64.90;;;;;;5017173;28;1487;-75
2021/06/10 10:00:01;;;;;;;;;;;20.50;64.80;;;;;;5035453;28;1083;-75
2021/06/10 10:02:27;;;;;;;;;;;20.50;64.90;;;;;;5035229;28;1251;-75
2021/06/10 10:05:08;;;;;;;;;;;20.50;64.90;;;;;;5027142;28;2070;-74
2021/06/10 10:07:34;;;;;;;;;;;20.50;64.80;;;;;;5021967;28;1376;-75
2021/06/10 10:10:00;;;;;;;;;;;20.50;64.90;;;;;;5036238;28;2075;-75
2021/06/10 10:12:26;;;;;;;;;;;20.50;64.90;;;;;;5044278;28;1946;-75
2021/06/10 10:14:52;;;;;;;;;;;20.50;65.30;;;;;;5043058;28;1973;-74
2021/06/10 10:17:18;;;;;;;;;;;20.50;65.30;;;;;;5034669;28;1863;-75
2021/06/10 10:19:43;;;;;;;;;;;20.50;65.30;;;;;;5039606;28;1271;-75
2021/06/10 10:22:11;;;;;;;;;;;20.50;65.20;;;;;;5046242;28;1280;-75
2021/06/10 10:24:37;;;;;;;;;;;20.50;65.40;;;;;;5033242;28;1087;-75
2021/06/10 10:27:02;;;;;;;;;;;20.50;65.40;;;;;;5034324;28;1048;-76
2021/06/10 10:29:28;;;;;;;;;;;20.50;65.30;;;;;;5034546;28;1205;-76
2021/06/10 10:31:53;;;;;;;;;;;20.50;65.20;;;;;;5032845;28;1103;-76
2021/06/10 10:34:29;;;;;;;;;;;20.50;65.20;;;;;;5032984;28;1898;-77
2021/06/10 10:36:55;;;;;;;;;;;20.50;65.20;;;;;;5034361;28;1175;-76
2021/06/10 10:39:28;;;;;;;;;;;20.50;65.10;;;;;;5034306;28;1075;-74
2021/06/10 10:41:54;;;;;;;;;;;20.50;65.00;;;;;;5034282;28;1111;-74
2021/06/10 10:44:25;;;;;;;;;;;20.50;65.00;;;;;;5033702;28;1271;-74
2021/06/10 10:47:09;;;;;;;;;;;20.50;65.00;;;;;;5032903;28;1187;-74
2021/06/10 10:49:39;;;;;;;;;;;20.50;65.00;;;;;;5033575;28;1059;-74
2021/06/10 10:52:14;;;;;;;;;;;20.50;65.00;;;;;;5032770;28;1277;-74
2021/06/10 10:54:39;;;;;;;;;;;20.50;65.10;;;;;;5030535;28;1946;-75
2021/06/10 10:57:05;;;;;;;;;;;20.50;65.00;;;;;;5022812;28;934;-74
2021/06/10 10:59:40;;;;;;;;;;;20.50;65.00;;;;;;5034245;28;1043;-74
2021/06/10 11:02:06;;;;;;;;;;;20.50;64.90;;;;;;5032750;28;1247;-74
2021/06/10 11:04:51;;;;;;;;;;;20.50;65.00;;;;;;5032379;28;1135;-74
2021/06/10 11:07:35;;;;;;;;;;;20.50;64.90;;;;;;5033782;28;1185;-74
2021/06/10 11:10:04;;;;;;;;;;;20.50;65.00;;;;;;5034129;28;1103;-74
2021/06/10 11:12:38;;;;;;;;;;;20.50;65.00;;;;;;5033597;28;1215;-75
2021/06/10 11:15:05;;;;;;;;;;;20.50;65.00;;;;;;5033451;28;1961;-74
2021/06/10 11:17:33;;;;;;;;;;;20.50;65.00;;;;;;5033605;28;1122;-74
2021/06/10 11:20:00;;;;;;;;;;;20.50;65.00;;;;;;5032065;28;1292;-74
2021/06/10 11:22:34;;;;;;;;;;;20.50;65.00;;;;;;5033285;28;1288;-73
2021/06/10 11:25:00;;;;;;;;;;;20.50;65.00;;;;;;5031750;28;1974;-74
2021/06/10 11:27:32;;;;;;;;;;;20.50;64.90;;;;;;5029297;28;1990;-73
2021/06/10 11:30:27;;;;;;;;;;;20.50;65.00;;;;;;5031131;28;1618;-73
2021/06/10 11:32:59;;;;;;;;;;;20.50;64.90;;;;;;5019362;28;1906;-73
2021/06/10 11:35:35;;;;;;;;;;;20.50;65.00;;;;;;5032387;28;1142;-73
2021/06/10 11:38:01;;;;;;;;;;;20.50;64.90;;;;;;5033266;28;1130;-73
2021/06/10 11:40:27;;;;;;;;;;;20.50;65.00;;;;;;5033157;28;1075;-71
2021/06/10 11:42:52;;;;;;;;;;;20.50;65.00;;;;;;5032660;28;1236;-73
2021/06/10 11:45:21;;;;;;;;;;;20.50;65.00;;;;;;5033062;28;1123;-73
2021/06/10 11:47:47;;;;;;;;;;;20.50;65.00;;;;;;5032218;28;1146;-74
2021/06/10 11:50:23;;;;;;;;;;;20.50;65.00;;;;;;5031745;28;1128;-74
2021/06/10 11:52:52;;;;;;;;;;;20.50;65.00;;;;;;5028370;28;1957;-73
2021/06/10 11:55:18;;;;;;;;;;;20.50;65.00;;;;;;5032051;28;1147;-73
2021/06/10 11:57:43;;;;;;;;;;;20.50;64.90;;;;;;5032814;28;1127;-74
2021/06/10 12:00:12;;;;;;;;;;;20.50;65.00;;;;;;5032151;28;1143;-74
2021/06/10 12:02:38;;;;;;;;;;;20.50;65.00;;;;;;5031412;28;1741;-74
2021/06/10 12:05:15;;;;;;;;;;;20.50;65.80;;;;;;5031296;28;1123;-74
2021/06/10 12:07:40;;;;;;;;;;;20.50;64.90;;;;;;5032477;28;1127;-74
2021/06/10 12:10:09;;;;;;;;;;;20.50;64.90;;;;;;5032796;28;1091;-73
2021/06/10 12:12:38;;;;;;;;;;;20.50;64.90;;;;;;5032670;28;1219;-73
2021/06/10 12:15:04;;;;;;;;;;;20.50;65.00;;;;;;5023968;28;1960;-73
2021/06/10 12:17:32;;;;;;;;;;;20.50;64.90;;;;;;5026847;28;1116;-73
2021/06/10 12:20:13;;;;;;;;;;;20.50;65.00;;;;;;5031121;28;1298;-73
2021/06/10 12:22:42;;;;;;;;;;;20.50;64.90;;;;;;5014849;28;1299;-74
2021/06/10 12:25:17;;;;;;;;;;;20.50;64.90;;;;;;5030929;28;1264;-73
2021/06/10 12:27:43;;;;;;;;;;;20.50;64.90;;;;;;5031393;28;1040;-74
2021/06/10 12:30:34;;;;;;;;;;;20.50;64.90;;;;;;5031743;28;1128;-73
2021/06/10 12:33:18;;;;;;;;;;;20.50;64.90;;;;;;5032233;28;1918;-73
2021/06/10 12:35:47;;;;;;;;;;;20.50;64.90;;;;;;5032203;28;1135;-73
2021/06/10 12:38:13;;;;;;;;;;;20.50;64.90;;;;;;5031475;28;1127;-74
2021/06/10 12:40:39;;;;;;;;;;;20.50;64.90;;;;;;5021598;28;1120;-73
2021/06/10 12:43:05;;;;;;;;;;;20.50;64.90;;;;;;5031902;28;1320;-73
2021/06/10 12:45:31;;;;;;;;;;;20.50;64.90;;;;;;5031273;28;1100;-74
2021/06/10 12:47:56;;;;;;;;;;;20.50;64.90;;;;;;5031067;28;1096;-74
2021/06/10 12:50:22;;;;;;;;;;;20.50;64.90;;;;;;5030565;28;1119;-75
2021/06/10 12:52:47;;;;;;;;;;;20.50;64.90;;;;;;5021675;28;1245;-73
2021/06/10 12:55:13;;;;;;;;;;;20.50;64.90;;;;;;5025724;28;1295;-73
2021/06/10 12:57:39;;;;;;;;;;;20.50;64.90;;;;;;5022599;28;1040;-73
2021/06/10 13:00:10;;;;;;;;;;;20.50;65.00;;;;;;5025542;28;1188;-73
2021/06/10 13:02:35;;;;;;;;;;;20.50;65.00;;;;;;5024853;28;1434;-72
2021/06/10 13:05:18;;;;;;;;;;;20.50;65.00;;;;;;5024902;28;1075;-75
2021/06/10 13:07:44;;;;;;;;;;;20.50;65.00;;;;;;5010136;28;1282;-74
2021/06/10 13:10:33;;;;;;;;;;;20.50;65.00;;;;;;5023258;28;1279;-74
2021/06/10 13:12:59;;;;;;;;;;;20.50;65.00;;;;;;5042176;22;1993;-67
2021/06/10 13:15:24;;;;;;;;;;;20.50;65.00;;;;;;5048209;28;1073;-66
2021/06/10 13:17:57;;;;;;;;;;;20.50;65.40;;;;;;5047875;28;1200;-66
2021/06/10 13:20:41;;;;;;;;;;;20.50;65.00;;;;;;5043354;28;1223;-66
2021/06/10 13:23:07;;;;;;;;;;;20.50;65.00;;;;;;5043492;28;1359;-66
2021/06/10 13:25:32;;;;;;;;;;;20.50;65.00;;;;;;5037916;28;1346;-66
2021/06/10 13:28:07;;;;;;;;;;;20.50;65.00;;;;;;5034638;28;859;-68
2021/06/10 13:30:33;;;;;;;;;;;20.50;65.00;;;;;;5035109;28;1371;-66
2021/06/10 13:32:58;;;;;;;;;;;20.50;65.00;;;;;;5033838;28;1979;-66
2021/06/10 13:35:25;;;;;;;;;;;20.60;65.00;;;;;;5034216;28;1197;-66
2021/06/10 13:37:50;;;;;;;;;;;20.50;65.00;;;;;;5035114;28;1112;-66
2021/06/10 13:40:16;;;;;;;;;;;20.50;65.00;;;;;;5035390;28;1655;-66
2021/06/10 13:42:49;;;;;;;;;;;20.50;64.90;;;;;;5035114;28;1574;-67
2021/06/10 13:45:14;;;;;;;;;;;20.60;65.00;;;;;;5034327;28;1684;-68
2021/06/10 13:47:40;;;;;;;;;;;20.60;65.00;;;;;;5035200;28;842;-67
2021/06/10 13:50:06;;;;;;;;;;;20.60;65.00;;;;;;5034496;28;1248;-67
2021/06/10 13:52:31;;;;;;;;;;;20.50;65.00;;;;;;5034771;28;1705;-67
2021/06/10 13:54:57;;;;;;;;;;;20.50;65.70;;;;;;5034195;28;1894;-68
2021/06/10 13:57:22;;;;;;;;;;;20.50;64.90;;;;;;5034978;28;1618;-67
2021/06/10 13:59:48;;;;;;;;;;;20.60;65.00;;;;;;5035048;28;1690;-67
2021/06/10 14:02:14;;;;;;;;;;;20.60;65.80;;;;;;5034809;28;1738;-67
2021/06/10 14:04:40;;;;;;;;;;;20.60;65.00;;;;;;5033544;28;1675;-67
2021/06/10 14:07:06;;;;;;;;;;;20.60;65.00;;;;;;5034732;28;1425;-67
2021/06/10 14:09:32;;;;;;;;;;;20.60;65.00;;;;;;5034710;28;1500;-67
2021/06/10 14:11:57;;;;;;;;;;;20.60;65.00;;;;;;5034698;28;1627;-67
2021/06/10 14:14:23;;;;;;;;;;;20.50;65.00;;;;;;5033627;28;1910;-67
2021/06/10 14:16:49;;;;;;;;;;;20.60;65.00;;;;;;5034531;28;1263;-67
2021/06/10 14:19:18;;;;;;;;;;;20.60;65.00;;;;;;5034132;28;1682;-67
2021/06/10 14:21:44;;;;;;;;;;;20.60;65.00;;;;;;5034433;28;1522;-68
2021/06/10 14:24:10;;;;;;;;;;;20.50;64.90;;;;;;5031531;28;1310;-67
2021/06/10 14:26:35;;;;;;;;;;;20.60;65.00;;;;;;5034849;28;1435;-66
2021/06/10 14:29:07;;;;;;;;;;;20.60;65.00;;;;;;5034211;28;1413;-66
2021/06/10 14:34:16;;;;;;;;;;;20.60;65.00;;;;;;5033242;28;1960;-68